Aviation Digital Data Service (ADDS)

Output produced by METARs form (0705 UTC 06 July 2015)
found at http://aviationweather.gov/adds/metars/
 
KSSI 060638Z 0607/0706 00000KT P6SM SCT009 SCT250 
     FM061300 26008KT P6SM SCT025 SCT250 
     FM061600 14010G15KT P6SM VCSH SCT040 SCT250 
     FM061900 13011G16KT P6SM VCTS SCT045CB SCT150 BKN250 
     PROB30 0619/0623 VRB15G25KT 3SM TSRA BR SCT020 BKN035CB OVC090 
     FM070000 16008KT P6SM VCSH SCT030 BKN090 OVC250